createdAt,value
2023-09-17T00:01:20.340Z,1.00
2023-09-17T00:03:47.784Z,1.00
2023-09-17T00:06:14.822Z,1.00
2023-09-17T00:08:41.703Z,1.00
2023-09-17T00:11:08.912Z,1.00
2023-09-17T00:13:36.776Z,1.00
2023-09-17T00:16:03.969Z,1.00
2023-09-17T00:18:31.135Z,1.00
2023-09-17T00:20:58.290Z,1.00
2023-09-17T00:23:25.273Z,1.00
2023-09-17T00:25:52.418Z,1.00
2023-09-17T00:28:19.552Z,1.00
2023-09-17T00:30:46.612Z,1.00
2023-09-17T00:33:13.634Z,1.00
2023-09-17T00:35:40.531Z,1.00
2023-09-17T00:38:07.508Z,1.00
2023-09-17T00:40:38.411Z,1.00
2023-09-17T00:43:05.579Z,1.00
2023-09-17T00:45:34.509Z,1.00
2023-09-17T00:48:02.103Z,1.00
2023-09-17T00:50:29.268Z,1.00
2023-09-17T00:52:56.228Z,1.00
2023-09-17T00:55:23.453Z,1.00
2023-09-17T00:57:51.612Z,1.00
2023-09-17T01:00:22.368Z,1.00
2023-09-17T01:02:49.989Z,1.00
2023-09-17T01:05:18.129Z,1.00
2023-09-17T01:07:46.503Z,1.00
2023-09-17T01:10:14.673Z,1.00
2023-09-17T01:12:43.898Z,1.00
2023-09-17T01:15:11.368Z,1.00
2023-09-17T01:17:39.244Z,1.00
2023-09-17T01:20:30.898Z,1.00
2023-09-17T01:23:03.364Z,1.00
2023-09-17T01:25:58.865Z,1.00
2023-09-17T01:28:25.905Z,1.00
2023-09-17T01:30:53.285Z,1.00
2023-09-17T01:33:20.265Z,1.00
2023-09-17T01:35:56.225Z,1.00
2023-09-17T01:38:29.853Z,1.00
2023-09-17T01:40:57.655Z,1.00
2023-09-17T01:43:24.634Z,1.00
2023-09-17T01:45:52.286Z,1.00
2023-09-17T01:48:20.100Z,1.00
2023-09-17T01:50:48.474Z,1.00
2023-09-17T01:53:16.558Z,1.00
2023-09-17T01:55:43.653Z,1.00
2023-09-17T01:58:13.794Z,1.00
2023-09-17T02:00:40.755Z,1.00
2023-09-17T02:03:09.723Z,1.00
2023-09-17T02:05:36.813Z,1.00
2023-09-17T02:08:04.921Z,1.00
2023-09-17T02:10:31.863Z,1.00
2023-09-17T02:12:58.917Z,1.00
2023-09-17T02:15:25.946Z,1.00
2023-09-17T02:17:53.296Z,1.00
2023-09-17T02:20:20.460Z,1.00
2023-09-17T02:22:47.519Z,1.00
2023-09-17T02:25:14.540Z,1.00
2023-09-17T02:27:41.517Z,1.00
2023-09-17T02:30:09.675Z,1.00
2023-09-17T02:32:39.860Z,1.00
2023-09-17T02:35:08.507Z,1.00
2023-09-17T02:37:35.687Z,1.00
2023-09-17T02:40:10.337Z,1.00
2023-09-17T02:42:38.882Z,1.00
2023-09-17T02:45:07.307Z,1.00
2023-09-17T02:47:37.373Z,1.00
2023-09-17T02:50:05.872Z,1.00
2023-09-17T02:52:33.150Z,1.00
2023-09-17T02:55:00.093Z,1.00
2023-09-17T02:57:27.676Z,1.00
2023-09-17T02:59:54.649Z,1.00
2023-09-17T03:02:21.742Z,1.00
2023-09-17T03:04:48.908Z,1.00
2023-09-17T03:07:19.943Z,1.00
2023-09-17T03:09:47.162Z,1.00
2023-09-17T03:12:14.205Z,1.00
2023-09-17T03:14:41.574Z,1.00
2023-09-17T03:17:08.699Z,1.00
2023-09-17T03:19:36.125Z,1.00
2023-09-17T03:22:03.809Z,1.00
2023-09-17T03:24:30.702Z,1.00
2023-09-17T03:26:57.625Z,1.00
2023-09-17T03:29:25.904Z,1.00
2023-09-17T03:31:53.649Z,1.00
2023-09-17T03:34:20.829Z,1.00
2023-09-17T03:36:47.833Z,1.00
2023-09-17T03:39:14.752Z,1.00
2023-09-17T03:41:42.024Z,1.00
2023-09-17T03:44:11.519Z,1.00
2023-09-17T03:46:39.626Z,1.00
2023-09-17T03:49:07.179Z,1.00
2023-09-17T03:51:34.391Z,1.00
2023-09-17T03:54:01.660Z,1.00
2023-09-17T03:56:28.823Z,1.00
2023-09-17T03:58:55.932Z,1.00
2023-09-17T04:01:23.216Z,1.00
2023-09-17T04:03:50.657Z,1.00
2023-09-17T04:06:17.963Z,1.00
2023-09-17T04:08:44.840Z,1.00
2023-09-17T04:11:17.036Z,1.00
2023-09-17T04:13:45.281Z,1.00
2023-09-17T04:16:13.646Z,1.00
2023-09-17T04:18:40.909Z,1.00
2023-09-17T04:21:07.911Z,1.00
2023-09-17T04:23:34.859Z,1.00
2023-09-17T04:26:02.131Z,1.00
2023-09-17T04:28:29.150Z,1.00
2023-09-17T04:30:56.191Z,1.00
2023-09-17T04:33:23.999Z,1.00
2023-09-17T04:35:57.477Z,1.00
2023-09-17T04:38:24.746Z,1.00
2023-09-17T04:40:52.197Z,1.00
2023-09-17T04:43:21.529Z,1.00
2023-09-17T04:45:48.686Z,1.00
2023-09-17T04:48:17.476Z,1.00
2023-09-17T04:50:47.969Z,1.00
2023-09-17T04:53:16.022Z,1.00
2023-09-17T04:55:43.259Z,18.30
2023-09-17T04:58:10.380Z,24.30
2023-09-17T05:00:38.156Z,53.20
2023-09-17T05:03:05.459Z,80.80
2023-09-17T05:05:32.612Z,82.00
2023-09-17T05:07:59.782Z,82.10
2023-09-17T05:10:27.253Z,82.00
2023-09-17T05:12:54.339Z,82.80
2023-09-17T05:15:22.499Z,87.10
2023-09-17T05:17:50.393Z,87.90
2023-09-17T05:20:19.478Z,90.20
2023-09-17T05:22:46.620Z,99.90
2023-09-17T05:25:13.544Z,99.90
2023-09-17T05:27:40.523Z,82.50
2023-09-17T05:30:08.187Z,63.60
2023-09-17T05:32:35.236Z,50.70
2023-09-17T05:35:04.627Z,14.80
2023-09-17T05:37:32.570Z,1.00
2023-09-17T05:40:00.062Z,1.00
2023-09-17T05:42:27.622Z,1.00
2023-09-17T05:44:54.773Z,1.00
2023-09-17T05:47:22.191Z,1.00
2023-09-17T05:49:49.478Z,1.00
2023-09-17T05:52:17.587Z,1.00
2023-09-17T05:54:44.632Z,1.00
2023-09-17T05:57:12.381Z,1.00
2023-09-17T05:59:39.549Z,1.00
2023-09-17T06:02:07.345Z,1.00
2023-09-17T06:04:34.401Z,1.00
2023-09-17T06:07:01.345Z,1.00
2023-09-17T06:09:28.550Z,1.00
2023-09-17T06:11:55.499Z,1.00
2023-09-17T06:14:22.468Z,1.00
2023-09-17T06:16:57.331Z,1.00
2023-09-17T06:19:26.847Z,1.00
2023-09-17T06:21:55.393Z,1.00
2023-09-17T06:24:22.428Z,1.00
2023-09-17T06:26:49.436Z,1.00
2023-09-17T06:29:17.186Z,1.00
2023-09-17T06:31:44.651Z,1.00
2023-09-17T06:34:12.224Z,1.00
2023-09-17T06:36:39.408Z,1.00
2023-09-17T06:39:07.514Z,1.00
2023-09-17T06:41:38.125Z,1.00
2023-09-17T06:44:06.173Z,1.00
2023-09-17T06:46:33.555Z,1.00
2023-09-17T06:49:00.710Z,1.00
2023-09-17T06:51:27.760Z,1.00
2023-09-17T06:53:54.733Z,1.00
2023-09-17T06:56:24.956Z,1.00
2023-09-17T06:58:52.331Z,1.00
2023-09-17T07:01:20.229Z,1.00
2023-09-17T07:03:48.213Z,1.00
2023-09-17T07:06:15.285Z,1.00
2023-09-17T07:08:42.525Z,1.00
2023-09-17T07:11:09.522Z,1.00
2023-09-17T07:13:36.542Z,1.00
2023-09-17T07:16:03.559Z,1.00
2023-09-17T07:18:32.955Z,1.00
2023-09-17T07:21:00.358Z,1.00
2023-09-17T07:23:27.537Z,1.00
2023-09-17T07:25:54.489Z,1.00
2023-09-17T07:28:21.951Z,1.00
2023-09-17T07:30:56.195Z,1.00
2023-09-17T07:33:24.045Z,1.00
2023-09-17T07:35:51.112Z,1.00
2023-09-17T07:38:18.136Z,1.00
2023-09-17T07:40:46.124Z,1.00
2023-09-17T07:43:13.244Z,1.00
2023-09-17T07:45:40.145Z,1.00
2023-09-17T07:48:07.284Z,1.00
2023-09-17T07:50:34.746Z,99.90
2023-09-17T07:53:03.425Z,99.90
2023-09-17T07:55:31.333Z,99.90
2023-09-17T07:57:58.518Z,99.90
2023-09-17T08:00:26.251Z,99.90
2023-09-17T08:02:54.039Z,99.90
2023-09-17T08:05:21.466Z,99.90
2023-09-17T08:07:49.459Z,99.90
2023-09-17T08:10:16.677Z,99.90
2023-09-17T08:12:43.680Z,99.90
2023-09-17T08:15:10.855Z,99.90
2023-09-17T08:17:38.022Z,99.90
2023-09-17T08:20:07.239Z,99.90
2023-09-17T08:22:34.559Z,99.90
2023-09-17T08:25:02.853Z,99.90
2023-09-17T08:27:31.642Z,99.90
2023-09-17T08:30:01.450Z,99.90
2023-09-17T08:32:29.167Z,99.90
2023-09-17T08:34:58.196Z,99.90
2023-09-17T08:37:25.993Z,99.90
2023-09-17T08:39:53.916Z,99.90
2023-09-17T08:42:23.125Z,99.90
2023-09-17T08:44:58.529Z,99.90
2023-09-17T08:47:28.945Z,99.90
2023-09-17T08:49:56.596Z,99.90
2023-09-17T08:52:25.878Z,99.90
2023-09-17T08:54:54.852Z,99.90
2023-09-17T08:57:24.006Z,99.90
2023-09-17T09:00:03.413Z,99.90
2023-09-17T09:02:34.526Z,99.90
2023-09-17T09:05:02.886Z,99.90
2023-09-17T09:07:30.917Z,99.90
2023-09-17T09:09:58.716Z,99.90
2023-09-17T09:12:27.840Z,99.90
2023-09-17T09:14:56.495Z,99.90
2023-09-17T09:17:23.664Z,99.90
2023-09-17T09:19:51.963Z,99.90
2023-09-17T09:22:19.040Z,99.90
2023-09-17T09:24:50.081Z,99.90
2023-09-17T09:27:17.471Z,99.90
2023-09-17T09:29:44.933Z,99.90
2023-09-17T09:32:13.409Z,99.90
2023-09-17T09:34:44.805Z,99.90
2023-09-17T09:37:11.988Z,99.90
2023-09-17T09:39:39.988Z,99.90
2023-09-17T09:42:08.896Z,99.90
2023-09-17T09:44:37.591Z,99.90
2023-09-17T09:47:06.110Z,99.90
2023-09-17T09:49:44.465Z,99.90
2023-09-17T09:52:16.241Z,99.90
2023-09-17T09:54:45.282Z,99.90
2023-09-17T09:57:17.920Z,99.90
2023-09-17T09:59:48.796Z,99.90
2023-09-17T10:02:17.503Z,99.90
2023-09-17T10:04:45.713Z,99.90
2023-09-17T10:07:15.284Z,99.90
2023-09-17T10:09:45.072Z,99.90
2023-09-17T10:12:12.659Z,99.90
2023-09-17T10:14:39.796Z,99.90
2023-09-17T10:17:08.081Z,99.90
2023-09-17T10:19:36.501Z,99.90
2023-09-17T10:22:07.528Z,99.90
2023-09-17T10:24:37.543Z,99.90
2023-09-17T10:27:07.017Z,99.90
2023-09-17T10:29:39.633Z,99.90
2023-09-17T10:32:08.190Z,99.90
2023-09-17T10:34:37.023Z,99.90
2023-09-17T10:37:05.454Z,99.90
2023-09-17T10:39:37.961Z,99.90
2023-09-17T10:42:07.561Z,99.90
2023-09-17T10:44:38.239Z,99.90
2023-09-17T10:47:10.737Z,99.90
2023-09-17T10:49:40.024Z,99.90
2023-09-17T10:52:09.322Z,99.90
2023-09-17T10:54:36.779Z,99.90
2023-09-17T10:57:15.938Z,99.90
2023-09-17T10:59:43.736Z,99.90
2023-09-17T11:02:12.590Z,99.90
2023-09-17T11:04:40.732Z,99.90
2023-09-17T11:07:09.735Z,99.90
2023-09-17T11:09:37.816Z,99.90
2023-09-17T11:12:05.584Z,99.90
2023-09-17T11:14:32.567Z,99.90
2023-09-17T11:16:59.974Z,99.90
2023-09-17T11:19:27.156Z,99.90
2023-09-17T11:22:03.222Z,99.90
2023-09-17T11:24:33.394Z,99.90
2023-09-17T11:27:05.718Z,99.90
2023-09-17T11:29:43.742Z,99.90
2023-09-17T11:32:11.487Z,99.90
2023-09-17T11:34:43.277Z,99.90
2023-09-17T11:37:10.555Z,99.90
2023-09-17T11:39:39.195Z,99.90
2023-09-17T11:42:13.957Z,99.90
2023-09-17T11:44:44.648Z,99.90
2023-09-17T11:47:14.147Z,99.90
2023-09-17T11:49:41.856Z,99.90
2023-09-17T11:52:13.359Z,99.90
2023-09-17T11:54:50.667Z,99.90
2023-09-17T11:57:27.506Z,99.90
2023-09-17T11:59:56.507Z,99.90
2023-09-17T12:02:24.654Z,99.90
2023-09-17T12:04:53.557Z,99.90
2023-09-17T12:07:21.432Z,99.90
2023-09-17T12:10:15.600Z,99.90
2023-09-17T12:12:44.132Z,99.90
2023-09-17T12:15:11.197Z,99.90
2023-09-17T12:17:44.418Z,99.90
2023-09-17T12:20:32.189Z,99.90
2023-09-17T12:23:01.171Z,99.90
2023-09-17T12:25:28.166Z,99.90
2023-09-17T12:27:56.097Z,99.90
2023-09-17T12:30:23.016Z,99.90
2023-09-17T12:32:50.486Z,99.90
2023-09-17T12:35:17.818Z,99.90
2023-09-17T12:37:44.972Z,99.90
2023-09-17T12:40:14.266Z,99.90
2023-09-17T12:42:41.412Z,99.90
2023-09-17T12:45:09.717Z,99.90
2023-09-17T12:47:36.862Z,99.90
2023-09-17T12:50:05.943Z,99.90
2023-09-17T12:52:33.295Z,99.90
2023-09-17T12:55:02.368Z,99.90
2023-09-17T12:57:29.755Z,99.90
2023-09-17T12:59:56.846Z,99.90
2023-09-17T13:02:31.580Z,99.90
2023-09-17T13:04:59.142Z,99.90
2023-09-17T13:07:28.798Z,99.90
2023-09-17T13:10:00.442Z,99.90
2023-09-17T13:12:28.698Z,99.90
2023-09-17T13:14:59.530Z,99.90
2023-09-17T13:17:29.943Z,99.90
2023-09-17T13:19:58.108Z,99.90
2023-09-17T13:22:25.690Z,99.90
2023-09-17T13:24:52.743Z,99.90
2023-09-17T13:27:20.686Z,99.90
2023-09-17T13:29:55.082Z,99.90
2023-09-17T13:32:23.027Z,99.90
2023-09-17T13:34:50.634Z,99.90
2023-09-17T13:37:18.630Z,99.90
2023-09-17T13:39:50.718Z,99.90
2023-09-17T13:42:18.480Z,99.90
2023-09-17T13:44:45.678Z,99.90
2023-09-17T13:47:13.593Z,99.90
2023-09-17T13:49:44.342Z,99.90
2023-09-17T13:52:11.644Z,99.90
2023-09-17T13:54:40.198Z,99.90
2023-09-17T13:57:07.620Z,99.90
2023-09-17T13:59:34.669Z,99.90
2023-09-17T14:02:03.132Z,99.90
2023-09-17T14:04:30.212Z,99.90
2023-09-17T14:06:57.168Z,99.90
2023-09-17T14:09:24.405Z,99.90
2023-09-17T14:11:51.330Z,99.90
2023-09-17T14:14:18.720Z,99.90
2023-09-17T14:16:47.417Z,99.90
2023-09-17T14:19:19.428Z,99.90
2023-09-17T14:21:47.656Z,99.90
2023-09-17T14:24:14.793Z,99.90
2023-09-17T14:26:41.732Z,99.90
2023-09-17T14:29:08.970Z,99.90
2023-09-17T14:31:38.423Z,99.90
2023-09-17T14:34:07.269Z,99.90
2023-09-17T14:36:34.214Z,99.90
2023-09-17T14:39:01.251Z,99.90
2023-09-17T14:41:30.949Z,99.90
2023-09-17T14:43:58.133Z,99.90
2023-09-17T14:46:25.213Z,99.90
2023-09-17T14:48:53.852Z,99.90
2023-09-17T14:51:21.112Z,99.90
2023-09-17T14:53:48.204Z,99.90
2023-09-17T14:56:15.257Z,99.90
2023-09-17T14:58:42.559Z,99.90
2023-09-17T15:01:11.914Z,99.90
2023-09-17T15:03:46.084Z,99.90
2023-09-17T15:06:13.715Z,99.90
2023-09-17T15:08:41.279Z,99.90
2023-09-17T15:11:08.342Z,99.90
2023-09-17T15:13:35.362Z,99.90
2023-09-17T15:16:02.590Z,99.90
2023-09-17T15:18:29.675Z,99.90
2023-09-17T15:20:57.024Z,99.90
2023-09-17T15:23:24.035Z,99.90
2023-09-17T15:25:51.538Z,99.90
2023-09-17T15:28:18.704Z,99.90
2023-09-17T15:30:47.090Z,99.90
2023-09-17T15:33:14.260Z,99.90
2023-09-17T15:35:42.407Z,99.90
2023-09-17T15:38:09.920Z,99.90
2023-09-17T15:40:36.967Z,99.90
2023-09-17T15:43:04.067Z,99.90
2023-09-17T15:45:31.095Z,99.90
2023-09-17T15:47:58.397Z,99.90
2023-09-17T15:50:25.618Z,99.90
2023-09-17T15:52:52.679Z,99.90
2023-09-17T15:55:20.604Z,99.90
2023-09-17T15:57:48.616Z,99.90
2023-09-17T16:00:15.953Z,99.90
2023-09-17T16:02:43.545Z,99.90
2023-09-17T16:05:11.218Z,99.90
2023-09-17T16:07:44.683Z,99.90
2023-09-17T16:10:13.551Z,1.00
2023-09-17T16:12:40.789Z,1.00
2023-09-17T16:15:08.837Z,1.00
2023-09-17T16:17:38.660Z,1.00
2023-09-17T16:20:06.393Z,1.00
2023-09-17T16:22:35.218Z,1.00
2023-09-17T16:25:04.997Z,1.00
2023-09-17T16:27:32.368Z,1.00
2023-09-17T16:30:00.032Z,1.00
2023-09-17T16:32:27.705Z,1.00
2023-09-17T16:34:54.982Z,1.00
2023-09-17T16:37:22.063Z,1.00
2023-09-17T16:39:51.287Z,1.00
2023-09-17T16:42:18.405Z,1.00
2023-09-17T16:44:46.146Z,1.00
2023-09-17T16:47:16.312Z,1.00
2023-09-17T16:49:46.102Z,1.00
2023-09-17T16:52:13.505Z,1.00
2023-09-17T16:54:42.902Z,1.00
2023-09-17T16:57:10.966Z,1.00
2023-09-17T16:59:38.269Z,1.00
2023-09-17T17:02:07.391Z,1.00
2023-09-17T17:04:34.824Z,1.00
2023-09-17T17:07:02.864Z,1.00
2023-09-17T17:09:30.023Z,1.00
2023-09-17T17:11:57.406Z,1.00
2023-09-17T17:14:24.867Z,1.00
2023-09-17T17:16:52.128Z,1.00
2023-09-17T17:19:19.088Z,1.00
2023-09-17T17:21:46.066Z,1.00
2023-09-17T17:24:13.188Z,1.00
2023-09-17T17:26:40.240Z,1.00
2023-09-17T17:29:07.241Z,1.00
2023-09-17T17:31:35.164Z,1.00
2023-09-17T17:34:02.246Z,1.00
2023-09-17T17:36:29.780Z,1.00
2023-09-17T17:38:57.931Z,1.00
2023-09-17T17:41:24.916Z,1.00
2023-09-17T17:43:52.500Z,1.00
2023-09-17T17:46:19.789Z,1.00
2023-09-17T17:48:48.447Z,1.00
2023-09-17T17:51:15.948Z,1.00
2023-09-17T17:53:42.836Z,1.00
2023-09-17T17:56:11.400Z,1.00
2023-09-17T17:58:38.682Z,1.00
2023-09-17T18:01:07.083Z,1.00
2023-09-17T18:03:34.397Z,1.00
2023-09-17T18:06:01.574Z,1.00
2023-09-17T18:08:28.656Z,1.00
2023-09-17T18:10:55.677Z,1.00
2023-09-17T18:13:22.767Z,1.00
2023-09-17T18:15:50.049Z,1.00
2023-09-17T18:18:17.107Z,1.00
2023-09-17T18:20:44.992Z,1.00
2023-09-17T18:23:12.249Z,1.00
2023-09-17T18:25:40.011Z,1.00
2023-09-17T18:28:10.444Z,1.00
2023-09-17T18:30:38.207Z,1.00
2023-09-17T18:33:07.096Z,1.00
2023-09-17T18:35:34.828Z,1.00
2023-09-17T18:38:03.459Z,1.00
2023-09-17T18:40:30.544Z,1.00
2023-09-17T18:42:57.509Z,1.00
2023-09-17T18:45:24.759Z,1.00
2023-09-17T18:47:51.698Z,1.00
2023-09-17T18:50:18.830Z,1.00
2023-09-17T18:52:46.146Z,1.00
2023-09-17T18:55:13.180Z,1.00
2023-09-17T18:57:41.007Z,1.00
2023-09-17T19:00:09.733Z,1.00
2023-09-17T19:02:40.911Z,1.00
2023-09-17T19:05:08.733Z,1.00
2023-09-17T19:07:36.183Z,1.00
2023-09-17T19:10:04.838Z,1.00
2023-09-17T19:12:31.909Z,1.00
2023-09-17T19:15:00.370Z,1.00
2023-09-17T19:17:28.913Z,1.00
2023-09-17T19:19:56.182Z,1.00
2023-09-17T19:22:23.858Z,1.00
2023-09-17T19:24:51.216Z,1.00
2023-09-17T19:27:18.430Z,1.00
2023-09-17T19:29:46.020Z,1.00
2023-09-17T19:32:15.298Z,1.00
2023-09-17T19:34:42.401Z,1.00
2023-09-17T19:37:12.785Z,1.00
2023-09-17T19:39:39.987Z,1.00
2023-09-17T19:42:08.577Z,1.00
2023-09-17T19:44:35.743Z,1.00
2023-09-17T19:47:03.273Z,1.00
2023-09-17T19:49:30.505Z,1.00
2023-09-17T19:51:57.684Z,1.00
2023-09-17T19:54:25.060Z,1.00
2023-09-17T19:56:52.076Z,1.00
2023-09-17T19:59:19.143Z,1.00
2023-09-17T20:01:49.018Z,1.00
2023-09-17T20:04:16.379Z,1.00
2023-09-17T20:06:53.885Z,1.00
2023-09-17T20:09:22.428Z,1.00
2023-09-17T20:11:50.011Z,1.00
2023-09-17T20:14:17.180Z,1.00
2023-09-17T20:16:44.359Z,1.00
2023-09-17T20:19:12.795Z,1.00
2023-09-17T20:21:40.343Z,1.00
2023-09-17T20:24:07.890Z,1.00
2023-09-17T20:26:37.423Z,1.00
2023-09-17T20:29:05.451Z,1.00
2023-09-17T20:31:32.918Z,1.00
2023-09-17T20:34:00.903Z,1.00
2023-09-17T20:36:28.201Z,1.00
2023-09-17T20:38:55.424Z,1.00
2023-09-17T20:41:24.157Z,1.00
2023-09-17T20:43:51.288Z,1.00
2023-09-17T20:46:18.558Z,1.00
2023-09-17T20:48:45.874Z,1.00
2023-09-17T20:51:13.329Z,1.00
2023-09-17T20:53:40.327Z,1.00
2023-09-17T20:56:07.451Z,1.00
2023-09-17T20:58:36.049Z,1.00
2023-09-17T21:01:04.959Z,1.00
2023-09-17T21:03:32.272Z,1.00
2023-09-17T21:05:59.574Z,1.00
2023-09-17T21:08:26.769Z,1.00
2023-09-17T21:10:53.735Z,1.00
2023-09-17T21:13:20.692Z,1.00
2023-09-17T21:15:47.605Z,1.00
2023-09-17T21:18:15.234Z,1.00
2023-09-17T21:20:43.198Z,1.00
2023-09-17T21:23:10.236Z,1.00
2023-09-17T21:25:37.425Z,1.00
2023-09-17T21:28:06.537Z,1.00
2023-09-17T21:30:34.325Z,1.00
2023-09-17T21:33:01.383Z,1.00
2023-09-17T21:35:28.965Z,1.00
2023-09-17T21:37:55.993Z,1.00
2023-09-17T21:40:22.864Z,1.00
2023-09-17T21:42:49.833Z,1.00
2023-09-17T21:45:17.717Z,1.00
2023-09-17T21:47:44.821Z,1.00
2023-09-17T21:50:12.120Z,1.00
2023-09-17T21:52:39.167Z,1.00
2023-09-17T21:55:06.760Z,1.00
2023-09-17T21:57:33.792Z,1.00
2023-09-17T22:00:00.688Z,1.00
2023-09-17T22:02:28.172Z,1.00
2023-09-17T22:04:55.342Z,1.00
2023-09-17T22:07:22.348Z,1.00
2023-09-17T22:09:49.323Z,1.00
2023-09-17T22:12:16.265Z,1.00
2023-09-17T22:14:43.305Z,1.00
2023-09-17T22:17:11.916Z,1.00
2023-09-17T22:19:41.755Z,1.00
2023-09-17T22:22:09.049Z,1.00
2023-09-17T22:24:36.549Z,1.00
2023-09-17T22:27:03.831Z,1.00
2023-09-17T22:29:30.790Z,1.00
2023-09-17T22:31:57.786Z,1.00
2023-09-17T22:34:24.845Z,1.00
2023-09-17T22:36:51.759Z,1.00
2023-09-17T22:39:18.664Z,1.00
2023-09-17T22:41:45.660Z,1.00
2023-09-17T22:44:23.399Z,1.00
2023-09-17T22:46:51.003Z,1.00
2023-09-17T22:49:17.905Z,1.00
2023-09-17T22:51:44.903Z,1.00
2023-09-17T22:54:11.926Z,1.00
2023-09-17T22:56:38.858Z,1.00
2023-09-17T22:59:05.884Z,1.00
2023-09-17T23:01:33.421Z,1.00
2023-09-17T23:04:00.421Z,1.00
2023-09-17T23:06:27.874Z,1.00
2023-09-17T23:08:56.112Z,1.00
2023-09-17T23:11:23.220Z,1.00
2023-09-17T23:13:50.999Z,1.00
2023-09-17T23:16:18.226Z,1.00
2023-09-17T23:18:45.156Z,1.00
2023-09-17T23:21:16.298Z,1.00
2023-09-17T23:23:44.153Z,1.00
2023-09-17T23:26:13.517Z,1.00
2023-09-17T23:28:41.071Z,1.00
2023-09-17T23:31:09.776Z,1.00
2023-09-17T23:33:37.035Z,1.00
2023-09-17T23:36:04.529Z,1.00
2023-09-17T23:38:32.304Z,1.00
2023-09-17T23:40:59.433Z,1.00
2023-09-17T23:43:26.485Z,1.00
2023-09-17T23:45:53.436Z,1.00
2023-09-17T23:48:20.384Z,1.00
2023-09-17T23:50:51.447Z,1.00
2023-09-17T23:53:18.418Z,1.00
2023-09-17T23:55:52.181Z,1.00
2023-09-17T23:58:19.577Z,1.00
